EST,Max TemperatureF,Mean TemperatureF,Min TemperatureF,Max Dew PointF,MeanDew PointF,Min DewpointF,Max Humidity, Mean Humidity, Min Humidity, Max Sea Level PressureIn, Mean Sea Level PressureIn, Min Sea Level PressureIn, Max VisibilityMiles, Mean VisibilityMiles, Min VisibilityMiles, Max Wind SpeedMPH, Mean Wind SpeedMPH, Max Gust SpeedMPH,PrecipitationIn, CloudCover, Events, WindDirDegrees
2012-12-1,55,44,33,46,40,32,93,83,63,30.41,30.38,30.35,10,6,0,12,3,,0.00,2,,71
2012-12-2,53,46,39,46,43,37,93,86,76,30.38,30.27,30.14,10,6,0,15,6,22,0.00,5,,173
2012-12-3,64,56,48,52,48,45,88,76,63,30.27,30.20,30.12,10,10,7,10,6,,0.00,2,,256
2012-12-4,62,56,50,54,49,46,94,80,68,30.28,30.20,30.05,10,10,5,16,7,22,0.00,3,,172
2012-12-5,59,49,39,52,38,19,82,59,45,30.27,30.10,29.97,10,10,10,16,11,25,0.00,3,,296
2012-12-6,41,36,30,30,23,18,87,62,45,30.39,30.32,30.27,10,10,10,13,6,20,0.00,1,,20
2012-12-7,51,40,30,50,40,27,94,85,76,30.29,30.15,30.00,10,9,2,9,2,,0.00,8,,156
2012-12-8,53,50,48,52,49,46,94,92,87,30.04,29.95,29.91,10,3,0,8,4,,0.00,8,,244
2012-12-9,53,50,48,52,48,46,100,92,82,30.20,30.11,30.00,9,3,0,17,6,25,0.00,8,,71
2012-12-10,64,58,53,61,55,50,94,92,88,30.00,29.75,29.60,10,8,2,14,9,20,0.01,5,Thunderstorm,185
2012-12-11,60,51,42,55,40,28,88,74,57,30.20,29.95,29.64,10,10,7,14,8,23,0.00,5,,307
2012-12-12,44,40,35,28,26,21,70,58,39,30.43,30.35,30.21,10,10,10,13,6,,0.00,0,,10
2012-12-13,48,39,30,30,27,25,87,63,46,30.43,30.39,30.35,10,10,10,17,9,22,0.00,0,,29
2012-12-14,48,37,26,36,29,23,93,73,53,30.34,30.29,30.22,10,10,10,13,2,,0.00,0,,255
2012-12-15,50,40,30,41,34,28,93,77,57,30.32,30.25,30.18,10,9,6,8,2,,0.00,0,,67
2012-12-16,55,50,44,52,47,41,94,89,81,30.17,30.00,29.87,10,6,0,7,3,,0.04,8,,151
2012-12-17,53,50,48,52,48,45,100,91,87,29.87,29.79,29.59,10,3,0,13,4,,0.11,8,,91
2012-12-18,59,52,44,54,44,30,100,75,54,29.76,29.60,29.53,10,10,4,17,13,30,0.01,4,,258
2012-12-19,48,45,42,36,32,30,66,61,57,30.17,29.94,29.76,10,10,10,16,11,23,0.00,2,,299
2012-12-20,51,44,37,45,33,27,82,70,53,30.23,30.07,29.66,10,10,5,20,6,28,0.07,2,,70
2012-12-21,57,47,37,54,30,23,88,60,46,29.63,29.39,29.21,10,9,3,29,22,40,0.43,7,,244
2012-12-22,42,38,35,25,23,19,56,50,39,29.99,29.73,29.49,10,10,10,25,19,37,0.00,5,,283
2012-12-23,46,37,28,28,23,21,86,57,37,30.07,30.00,29.93,10,10,10,16,11,24,0.00,0,,261
2012-12-24,48,38,28,45,31,21,93,75,56,30.11,30.01,29.88,10,10,7,12,5,,0.13,4,,64
2012-12-25,48,40,33,43,34,27,87,80,66,30.26,30.08,29.88,10,9,5,13,7,20,0.02,4,,319
2012-12-26,53,43,33,52,35,27,94,80,70,30.26,29.87,29.29,10,7,2,23,10,37,2.98,7,Thunderstorm,44
2012-12-27,51,44,37,50,31,23,94,71,56,29.94,29.62,29.27,10,8,2,24,16,39,0.00,8,,286
2012-12-28,39,34,30,28,26,25,87,68,60,30.12,30.06,29.95,10,10,10,18,10,26,0.00,3,,308
2012-12-29,42,38,33,41,32,25,93,80,60,30.05,29.75,29.50,10,8,2,22,5,38,0.19,7,,345
2012-12-30,39,37,35,25,21,18,60,52,45,30.29,30.03,29.71,10,10,10,23,17,38,0.00,4,,302
2012-12-31,42,37,32,30,24,19,70,58,52,30.30,30.18,29.98,10,10,10,15,12,21,0.00,2,,252